createdAt,value
2018-12-20T00:00:44.902Z,3.40
2018-12-20T00:03:16.757Z,3.40
2018-12-20T00:05:51.102Z,3.50
2018-12-20T00:08:25.704Z,3.50
2018-12-20T00:10:59.992Z,3.40
2018-12-20T00:13:34.847Z,3.50
2018-12-20T00:16:13.665Z,3.50
2018-12-20T00:18:53.887Z,3.40
2018-12-20T00:21:28.661Z,3.40
2018-12-20T00:23:59.178Z,3.40
2018-12-20T00:26:33.342Z,3.30
2018-12-20T00:29:06.161Z,3.30
2018-12-20T00:31:37.989Z,3.20
2018-12-20T00:34:09.968Z,3.10
2018-12-20T00:36:43.008Z,3.10
2018-12-20T00:41:50.399Z,3.10
2018-12-20T00:44:22.874Z,3.00
2018-12-20T00:46:57.880Z,3.00
2018-12-20T00:49:29.537Z,2.90
2018-12-20T00:52:03.910Z,2.80
2018-12-20T00:54:41.683Z,2.70
2018-12-20T00:57:19.911Z,2.60
2018-12-20T00:59:54.002Z,2.50
2018-12-20T01:02:28.877Z,2.40
2018-12-20T01:05:03.674Z,2.30
2018-12-20T01:07:38.328Z,2.20
2018-12-20T01:10:10.152Z,2.20
2018-12-20T01:12:46.390Z,2.20
2018-12-20T01:15:18.966Z,2.20
2018-12-20T01:17:51.127Z,2.20
2018-12-20T01:20:22.929Z,2.30
2018-12-20T01:22:57.216Z,2.30
2018-12-20T01:25:29.508Z,2.40
2018-12-20T01:28:03.623Z,2.50
2018-12-20T01:30:39.667Z,2.40
2018-12-20T01:33:14.618Z,2.20
2018-12-20T01:35:46.486Z,1.90
2018-12-20T01:38:18.378Z,1.70
2018-12-20T01:40:55.289Z,1.60
2018-12-20T01:43:29.229Z,1.50
2018-12-20T01:46:03.475Z,1.60
2018-12-20T01:48:37.153Z,1.60
2018-12-20T01:51:10.301Z,1.50
2018-12-20T01:53:42.877Z,1.50
2018-12-20T01:56:14.920Z,1.50
2018-12-20T01:58:46.921Z,1.50
2018-12-20T02:01:21.357Z,1.50
2018-12-20T02:04:00.048Z,1.50
2018-12-20T02:06:31.384Z,1.50
2018-12-20T02:09:08.661Z,1.40
2018-12-20T02:11:49.196Z,1.30
2018-12-20T02:14:19.265Z,1.30
2018-12-20T02:16:51.487Z,1.20
2018-12-20T02:19:23.562Z,1.10
2018-12-20T02:21:57.859Z,1.10
2018-12-20T02:24:29.465Z,1.20
2018-12-20T02:27:02.481Z,1.30
2018-12-20T02:29:34.481Z,1.40
2018-12-20T02:32:06.507Z,1.50
2018-12-20T02:34:38.408Z,1.50
2018-12-20T02:37:10.403Z,1.40
2018-12-20T02:39:46.543Z,1.40
2018-12-20T02:42:18.929Z,1.50
2018-12-20T02:44:52.002Z,1.60
2018-12-20T02:47:29.612Z,1.80
2018-12-20T02:50:02.446Z,1.80
2018-12-20T02:52:35.739Z,2.10
2018-12-20T02:55:11.333Z,2.20
2018-12-20T02:57:43.783Z,2.20
2018-12-20T03:00:15.918Z,2.20
2018-12-20T03:02:50.454Z,2.20
2018-12-20T03:05:23.231Z,2.10
2018-12-20T03:07:54.963Z,2.10
2018-12-20T03:10:28.148Z,2.10
2018-12-20T03:13:02.805Z,2.10
2018-12-20T03:15:34.679Z,2.00
2018-12-20T03:18:09.047Z,2.00
2018-12-20T03:20:41.632Z,1.80
2018-12-20T03:23:15.613Z,1.60
2018-12-20T03:25:48.380Z,1.60
2018-12-20T03:28:20.204Z,1.40
2018-12-20T03:30:52.552Z,1.20
2018-12-20T03:33:25.073Z,1.20
2018-12-20T03:35:57.432Z,1.10
2018-12-20T03:38:29.390Z,1.00
2018-12-20T03:41:01.547Z,1.10
2018-12-20T03:43:33.488Z,1.20
2018-12-20T03:46:05.610Z,1.30
2018-12-20T03:48:37.829Z,1.50
2018-12-20T03:51:12.609Z,1.60
2018-12-20T03:53:44.506Z,1.70
2018-12-20T03:56:17.219Z,1.90
2018-12-20T03:58:53.387Z,2.00
2018-12-20T04:01:25.055Z,2.00
2018-12-20T04:03:59.331Z,2.00
2018-12-20T04:06:29.848Z,2.10
2018-12-20T04:09:01.998Z,2.20
2018-12-20T04:11:34.063Z,2.20
2018-12-20T04:14:06.908Z,2.30
2018-12-20T04:16:39.527Z,2.30
2018-12-20T04:19:12.095Z,2.20
2018-12-20T04:21:48.509Z,2.10
2018-12-20T04:24:21.227Z,2.00
2018-12-20T04:26:53.227Z,1.90
2018-12-20T04:29:25.466Z,1.90
2018-12-20T04:31:57.879Z,1.90
2018-12-20T04:34:36.093Z,2.00
2018-12-20T04:37:12.133Z,2.00
2018-12-20T04:39:47.529Z,2.00
2018-12-20T04:42:21.908Z,2.00
2018-12-20T04:44:58.665Z,2.00
2018-12-20T04:47:30.477Z,2.00
2018-12-20T04:50:05.017Z,2.00
2018-12-20T04:52:37.383Z,2.00
2018-12-20T04:55:09.572Z,2.00
2018-12-20T04:57:41.646Z,2.10
2018-12-20T05:00:13.792Z,2.30
2018-12-20T05:02:51.738Z,2.40
2018-12-20T05:05:26.617Z,2.40
2018-12-20T05:07:58.700Z,2.50
2018-12-20T05:10:31.093Z,2.60
2018-12-20T05:13:03.054Z,2.80
2018-12-20T05:15:34.886Z,2.90
2018-12-20T05:18:10.242Z,3.00
2018-12-20T05:23:45.431Z,3.30
2018-12-20T05:26:17.718Z,3.40
2018-12-20T05:28:52.242Z,3.50
2018-12-20T05:31:24.384Z,3.60
2018-12-20T05:33:59.127Z,3.70
2018-12-20T05:36:33.195Z,3.70
2018-12-20T05:39:07.712Z,3.80
2018-12-20T05:41:40.359Z,3.90
2018-12-20T05:44:13.496Z,3.90
2018-12-20T05:46:44.514Z,3.90
2018-12-20T05:49:16.930Z,4.00
2018-12-20T05:51:48.633Z,4.00
2018-12-20T05:54:22.596Z,4.20
2018-12-20T05:56:56.894Z,4.20
2018-12-20T05:59:28.148Z,4.20
2018-12-20T06:02:03.915Z,4.10
2018-12-20T06:04:37.244Z,4.00
2018-12-20T06:07:10.619Z,3.90
2018-12-20T06:09:46.088Z,3.80
2018-12-20T06:12:18.604Z,3.80
2018-12-20T06:14:50.966Z,3.80
2018-12-20T06:17:22.823Z,3.80
2018-12-20T06:19:55.197Z,3.70
2018-12-20T06:22:27.710Z,3.70
2018-12-20T06:24:59.729Z,3.70
2018-12-20T06:27:31.590Z,3.80
2018-12-20T06:30:04.238Z,3.80
2018-12-20T06:32:34.569Z,3.90
2018-12-20T06:35:06.812Z,3.80
2018-12-20T06:37:38.835Z,3.80
2018-12-20T06:40:11.994Z,3.80
2018-12-20T06:42:43.698Z,3.80
2018-12-20T06:45:16.765Z,3.80
2018-12-20T06:47:52.098Z,3.70
2018-12-20T06:50:24.826Z,3.80
2018-12-20T06:52:56.934Z,3.80
2018-12-20T06:55:28.915Z,3.80
2018-12-20T06:58:01.746Z,3.90
2018-12-20T07:00:36.309Z,3.90
2018-12-20T07:03:07.751Z,3.90
2018-12-20T07:05:39.658Z,3.80
2018-12-20T07:08:11.665Z,3.70
2018-12-20T07:10:45.943Z,3.70
2018-12-20T07:13:18.926Z,3.70
2018-12-20T07:15:50.951Z,3.70
2018-12-20T07:18:23.877Z,3.70
2018-12-20T07:20:58.042Z,3.60
2018-12-20T07:23:30.329Z,3.50
2018-12-20T07:26:02.692Z,3.50
2018-12-20T07:28:35.652Z,3.60
2018-12-20T07:31:07.556Z,3.80
2018-12-20T07:33:39.670Z,3.90
2018-12-20T07:36:12.498Z,3.90
2018-12-20T07:38:44.380Z,3.80
2018-12-20T07:41:16.516Z,3.70
2018-12-20T07:43:48.314Z,3.70
2018-12-20T07:46:22.017Z,3.70
2018-12-20T07:48:53.548Z,3.70
2018-12-20T07:51:25.676Z,3.90
2018-12-20T07:53:57.527Z,4.10
2018-12-20T07:56:29.809Z,4.20
2018-12-20T07:59:04.233Z,4.20
2018-12-20T08:01:36.632Z,4.30
2018-12-20T08:04:08.787Z,4.40
2018-12-20T08:06:40.618Z,4.40
2018-12-20T08:09:12.723Z,4.40
2018-12-20T08:11:46.903Z,4.50
2018-12-20T08:14:18.823Z,4.50
2018-12-20T08:16:57.995Z,4.60
2018-12-20T08:19:36.163Z,4.60
2018-12-20T08:22:05.484Z,4.70
2018-12-20T08:24:37.250Z,4.60
2018-12-20T08:27:09.074Z,4.70
2018-12-20T08:29:42.184Z,4.60
2018-12-20T08:32:15.079Z,4.70
2018-12-20T08:34:49.907Z,4.70
2018-12-20T08:37:24.622Z,4.80
2018-12-20T08:39:56.258Z,5.00
2018-12-20T08:42:32.330Z,5.10
2018-12-20T08:45:04.376Z,5.10
2018-12-20T08:47:38.322Z,5.30
2018-12-20T08:50:09.998Z,5.20
2018-12-20T08:52:41.188Z,5.20
2018-12-20T08:55:15.131Z,5.30
2018-12-20T08:57:47.155Z,5.40
2018-12-20T09:00:19.627Z,5.40
2018-12-20T09:02:53.709Z,5.40
2018-12-20T09:05:25.546Z,5.50
2018-12-20T09:07:57.557Z,5.50
2018-12-20T09:10:29.649Z,5.50
2018-12-20T09:13:09.354Z,5.50
2018-12-20T09:15:35.771Z,5.70
2018-12-20T09:18:09.914Z,5.80
2018-12-20T09:20:45.435Z,5.80
2018-12-20T09:23:17.479Z,6.00
2018-12-20T09:25:49.479Z,6.40
2018-12-20T09:28:21.284Z,6.70
2018-12-20T09:30:53.922Z,7.40
2018-12-20T09:33:26.926Z,8.00
2018-12-20T09:35:57.472Z,8.40
2018-12-20T09:38:29.332Z,8.70
2018-12-20T09:41:01.346Z,8.60
2018-12-20T09:43:35.857Z,8.60
2018-12-20T09:46:07.370Z,7.70
2018-12-20T09:48:39.240Z,7.20
2018-12-20T09:51:11.052Z,6.90
2018-12-20T09:53:45.349Z,6.80
2018-12-20T09:56:17.578Z,6.60
2018-12-20T09:58:48.251Z,6.60
2018-12-20T10:01:20.174Z,6.60
2018-12-20T10:03:54.661Z,6.50
2018-12-20T10:06:27.149Z,6.50
2018-12-20T10:08:59.223Z,6.60
2018-12-20T10:11:31.122Z,6.80
2018-12-20T10:14:02.971Z,6.80
2018-12-20T10:16:37.115Z,7.00
2018-12-20T10:19:11.954Z,7.40
2018-12-20T10:21:44.017Z,7.40
2018-12-20T10:24:15.947Z,7.70
2018-12-20T10:26:50.586Z,7.70
2018-12-20T10:29:25.007Z,7.90
2018-12-20T10:31:55.545Z,7.80
2018-12-20T10:34:30.959Z,7.40
2018-12-20T10:37:03.322Z,7.20
2018-12-20T10:39:37.803Z,7.10
2018-12-20T10:42:12.514Z,6.90
2018-12-20T10:44:44.578Z,7.00
2018-12-20T10:47:28.790Z,7.30
2018-12-20T10:49:58.429Z,7.50
2018-12-20T10:52:28.385Z,7.70
2018-12-20T10:55:00.137Z,7.60
2018-12-20T10:57:32.208Z,7.50
2018-12-20T11:00:07.300Z,7.50
2018-12-20T11:02:46.722Z,7.70
2018-12-20T11:05:27.394Z,7.60
2018-12-20T11:08:03.326Z,7.60
2018-12-20T11:10:35.836Z,7.70
2018-12-20T11:13:12.593Z,7.90
2018-12-20T11:15:46.588Z,7.90
2018-12-20T11:18:21.334Z,8.20
2018-12-20T11:20:52.888Z,8.50
2018-12-20T11:23:24.905Z,8.50
2018-12-20T11:25:56.995Z,8.50
2018-12-20T11:28:27.070Z,8.50
2018-12-20T11:30:58.826Z,8.50
2018-12-20T11:33:30.998Z,8.30
2018-12-20T11:36:03.512Z,8.30
2018-12-20T11:38:36.111Z,8.10
2018-12-20T11:41:08.042Z,8.10
2018-12-20T11:43:39.789Z,8.00
2018-12-20T11:46:14.242Z,8.00
2018-12-20T11:48:46.699Z,8.00
2018-12-20T11:51:18.687Z,8.10
2018-12-20T11:53:52.773Z,8.00
2018-12-20T11:56:24.324Z,8.00
2018-12-20T11:58:57.688Z,8.00
2018-12-20T12:01:29.361Z,7.90
2018-12-20T12:04:04.105Z,8.00
2018-12-20T12:06:51.866Z,8.00
2018-12-20T12:09:24.142Z,7.90
2018-12-20T12:11:56.251Z,8.00
2018-12-20T12:14:31.198Z,8.00
2018-12-20T12:17:03.017Z,8.20
2018-12-20T12:19:41.279Z,8.30
2018-12-20T12:22:14.596Z,8.10
2018-12-20T12:24:46.684Z,8.10
2018-12-20T12:27:18.775Z,8.00
2018-12-20T12:29:50.592Z,8.00
2018-12-20T12:32:22.561Z,8.10
2018-12-20T12:34:56.974Z,8.00
2018-12-20T12:37:33.222Z,7.80
2018-12-20T12:40:05.822Z,7.80
2018-12-20T12:42:40.111Z,7.70
2018-12-20T12:45:14.203Z,7.80
2018-12-20T12:47:51.124Z,7.80
2018-12-20T12:50:25.166Z,7.90
2018-12-20T12:52:59.892Z,7.90
2018-12-20T12:55:34.735Z,7.80
2018-12-20T12:58:07.183Z,7.90
2018-12-20T13:00:42.398Z,7.90
2018-12-20T13:03:19.844Z,7.90
2018-12-20T13:05:51.518Z,7.90
2018-12-20T13:08:25.790Z,7.90
2018-12-20T13:10:58.450Z,8.00
2018-12-20T13:13:30.605Z,7.90
2018-12-20T13:16:02.491Z,7.90
2018-12-20T13:18:36.993Z,7.80
2018-12-20T13:21:08.715Z,7.80
2018-12-20T13:23:42.778Z,7.70
2018-12-20T13:26:15.300Z,7.70
2018-12-20T13:28:48.579Z,7.80
2018-12-20T13:31:21.021Z,7.70
2018-12-20T13:33:53.615Z,7.80
2018-12-20T13:36:25.581Z,7.80
2018-12-20T13:38:58.519Z,8.00
2018-12-20T13:41:31.041Z,7.80
2018-12-20T13:44:01.277Z,7.70
2018-12-20T13:46:33.119Z,7.70
2018-12-20T13:49:03.575Z,7.60
2018-12-20T13:51:35.654Z,7.60
2018-12-20T13:54:07.582Z,7.40
2018-12-20T13:56:39.290Z,7.20
2018-12-20T13:59:11.278Z,7.00
2018-12-20T14:01:44.369Z,7.00
2018-12-20T14:04:16.872Z,7.00
2018-12-20T14:06:49.623Z,7.00
2018-12-20T14:09:22.109Z,7.00
2018-12-20T14:11:53.846Z,7.00
2018-12-20T14:14:25.776Z,7.00
2018-12-20T14:16:57.654Z,7.00
2018-12-20T14:19:29.379Z,7.00
2018-12-20T14:22:01.475Z,6.90
2018-12-20T14:24:33.315Z,6.90
2018-12-20T14:27:03.799Z,6.70
2018-12-20T14:29:35.789Z,6.70
2018-12-20T14:32:09.491Z,6.70
2018-12-20T14:34:42.430Z,6.70
2018-12-20T14:37:14.774Z,6.70
2018-12-20T14:39:49.139Z,6.80
2018-12-20T14:42:21.585Z,6.80
2018-12-20T14:44:53.783Z,6.80
2018-12-20T14:47:26.999Z,6.80
2018-12-20T14:49:58.759Z,6.80
2018-12-20T14:52:31.168Z,6.80
2018-12-20T14:55:06.525Z,6.80
2018-12-20T14:57:42.417Z,6.80
2018-12-20T15:00:16.447Z,6.90
2018-12-20T15:02:46.916Z,6.90
2018-12-20T15:05:20.986Z,6.90
2018-12-20T15:07:54.030Z,6.90
2018-12-20T15:10:28.761Z,6.80
2018-12-20T15:13:00.476Z,6.70
2018-12-20T15:15:32.676Z,6.60
2018-12-20T15:18:05.498Z,6.60
2018-12-20T15:20:40.754Z,6.50
2018-12-20T15:23:13.367Z,6.40
2018-12-20T15:25:46.497Z,6.30
2018-12-20T15:28:16.995Z,6.20
2018-12-20T15:30:49.041Z,6.10
2018-12-20T15:33:21.094Z,6.00
2018-12-20T15:35:53.071Z,5.90
2018-12-20T15:38:25.498Z,5.90
2018-12-20T15:41:02.037Z,5.90
2018-12-20T15:43:34.014Z,5.80
2018-12-20T15:46:05.866Z,5.70
2018-12-20T15:48:37.995Z,5.60
2018-12-20T15:51:10.217Z,5.50
2018-12-20T15:53:42.019Z,5.50
2018-12-20T15:56:14.114Z,5.70
2018-12-20T15:58:47.060Z,5.70
2018-12-20T16:01:19.400Z,5.70
2018-12-20T16:03:51.282Z,5.80
2018-12-20T16:06:23.322Z,5.80
2018-12-20T16:08:56.350Z,5.80
2018-12-20T16:11:28.268Z,5.70
2018-12-20T16:14:01.540Z,5.60
2018-12-20T16:16:35.367Z,5.40
2018-12-20T16:19:09.592Z,5.20
2018-12-20T16:21:42.299Z,5.10
2018-12-20T16:24:14.786Z,5.00
2018-12-20T16:26:46.949Z,4.80
2018-12-20T16:29:19.190Z,4.70
2018-12-20T16:31:53.493Z,4.50
2018-12-20T16:34:26.137Z,4.30
2018-12-20T16:37:00.384Z,4.30
2018-12-20T16:39:40.253Z,4.40
2018-12-20T16:42:14.156Z,4.50
2018-12-20T16:44:46.320Z,4.70
2018-12-20T16:47:19.141Z,4.70
2018-12-20T16:49:50.970Z,4.70
2018-12-20T16:52:22.144Z,4.70
2018-12-20T16:54:57.598Z,4.50
2018-12-20T16:57:30.282Z,4.40
2018-12-20T17:00:03.122Z,4.40
2018-12-20T17:02:34.897Z,4.70
2018-12-20T17:05:07.194Z,4.70
2018-12-20T17:07:38.889Z,4.90
2018-12-20T17:10:16.953Z,5.10
2018-12-20T17:12:50.258Z,5.10
2018-12-20T17:15:22.311Z,5.20
2018-12-20T17:17:57.474Z,5.30
2018-12-20T17:20:33.487Z,5.20
2018-12-20T17:23:10.551Z,5.20
2018-12-20T17:25:42.199Z,5.30
2018-12-20T17:28:14.775Z,5.30
2018-12-20T17:30:47.841Z,5.30
2018-12-20T17:33:22.444Z,5.50
2018-12-20T17:35:54.062Z,5.50
2018-12-20T17:38:27.255Z,5.50
2018-12-20T17:40:59.844Z,5.50
2018-12-20T17:43:32.035Z,5.60
2018-12-20T17:46:04.601Z,5.60
2018-12-20T17:48:36.848Z,5.60
2018-12-20T17:51:09.820Z,5.40
2018-12-20T17:53:42.184Z,5.30
2018-12-20T17:56:14.663Z,5.10
2018-12-20T17:58:50.908Z,5.00
2018-12-20T18:01:25.120Z,5.00
2018-12-20T18:03:57.654Z,5.10
2018-12-20T18:06:33.271Z,5.10
2018-12-20T18:09:08.613Z,5.10
2018-12-20T18:11:43.440Z,5.10
2018-12-20T18:14:19.099Z,5.10
2018-12-20T18:16:51.718Z,5.10
2018-12-20T18:19:26.685Z,5.20
2018-12-20T18:21:59.147Z,5.30
2018-12-20T18:24:31.715Z,5.30
2018-12-20T18:27:04.831Z,5.30
2018-12-20T18:29:36.987Z,5.30
2018-12-20T18:35:04.069Z,5.40
2018-12-20T18:37:35.764Z,5.50
2018-12-20T18:40:10.375Z,5.60
2018-12-20T18:42:45.142Z,5.70
2018-12-20T18:45:19.196Z,5.80
2018-12-20T18:47:51.753Z,5.80
2018-12-20T18:50:23.582Z,5.80
2018-12-20T18:52:55.301Z,5.90
2018-12-20T18:55:29.066Z,5.90
2018-12-20T18:58:00.716Z,5.90
2018-12-20T19:00:36.043Z,5.90
2018-12-20T19:03:14.274Z,5.90
2018-12-20T19:05:49.745Z,5.90
2018-12-20T19:08:23.725Z,5.90
2018-12-20T19:10:58.536Z,5.80
2018-12-20T19:13:30.338Z,5.70
2018-12-20T19:16:02.452Z,5.80
2018-12-20T19:18:35.187Z,5.80
2018-12-20T19:21:07.088Z,5.70
2018-12-20T19:23:38.960Z,5.70
2018-12-20T19:26:15.357Z,5.70
2018-12-20T19:28:49.628Z,5.70
2018-12-20T19:31:21.500Z,5.70
2018-12-20T19:33:53.658Z,5.80
2018-12-20T19:36:25.513Z,5.80
2018-12-20T19:38:57.333Z,5.80
2018-12-20T19:41:29.043Z,5.80
2018-12-20T19:44:00.821Z,5.80
2018-12-20T19:46:32.877Z,5.80
2018-12-20T19:49:04.870Z,5.70
2018-12-20T19:51:37.379Z,5.60
2018-12-20T19:54:08.984Z,5.60
2018-12-20T19:56:41.067Z,5.70
2018-12-20T19:59:15.522Z,5.60
2018-12-20T20:01:48.059Z,5.60
2018-12-20T20:04:19.991Z,5.60
2018-12-20T20:07:10.491Z,5.60
2018-12-20T20:09:42.411Z,5.60
2018-12-20T20:12:14.509Z,5.50
2018-12-20T20:14:46.449Z,5.40
2018-12-20T20:17:18.402Z,5.50
2018-12-20T20:19:50.313Z,5.60
2018-12-20T20:22:23.123Z,5.70
2018-12-20T20:24:57.539Z,5.70
2018-12-20T20:27:28.518Z,5.70
2018-12-20T20:30:00.235Z,5.80
2018-12-20T20:32:30.582Z,5.70
2018-12-20T20:35:05.236Z,5.70
2018-12-20T20:37:37.829Z,5.60
2018-12-20T20:40:14.185Z,5.50
2018-12-20T20:42:47.369Z,5.40
2018-12-20T20:45:19.896Z,5.40
2018-12-20T20:47:51.653Z,5.40
2018-12-20T20:50:23.631Z,5.50
2018-12-20T20:52:57.905Z,5.40
2018-12-20T20:55:30.638Z,5.30
2018-12-20T20:58:02.798Z,5.30
2018-12-20T21:00:35.123Z,5.30
2018-12-20T21:03:07.143Z,5.30
2018-12-20T21:05:38.851Z,5.40
2018-12-20T21:08:30.426Z,5.40
2018-12-20T21:11:04.779Z,5.40
2018-12-20T21:13:39.041Z,5.40
2018-12-20T21:16:11.585Z,5.30
2018-12-20T21:18:43.422Z,5.30
2018-12-20T21:21:15.390Z,5.30
2018-12-20T21:23:47.356Z,5.30
2018-12-20T21:26:20.091Z,5.30
2018-12-20T21:28:52.279Z,5.30
2018-12-20T21:31:24.382Z,5.10
2018-12-20T21:33:56.249Z,5.10
2018-12-20T21:36:28.366Z,5.00
2018-12-20T21:39:00.788Z,5.10
2018-12-20T21:41:33.196Z,5.20
2018-12-20T21:44:05.323Z,5.30
2018-12-20T21:46:40.180Z,5.40
2018-12-20T21:49:12.368Z,5.40
2018-12-20T21:51:44.316Z,5.40
2018-12-20T21:54:16.448Z,5.40
2018-12-20T21:56:48.255Z,5.40
2018-12-20T21:59:20.249Z,5.50
2018-12-20T22:01:52.253Z,5.50
2018-12-20T22:04:24.178Z,5.50
2018-12-20T22:06:56.115Z,5.50
2018-12-20T22:09:27.970Z,5.40
2018-12-20T22:11:59.845Z,5.30
2018-12-20T22:14:32.691Z,5.30
2018-12-20T22:17:04.384Z,5.30
2018-12-20T22:19:38.903Z,5.20
2018-12-20T22:22:11.362Z,5.20
2018-12-20T22:24:43.314Z,5.10
2018-12-20T22:27:15.291Z,5.00
2018-12-20T22:29:47.423Z,4.90
2018-12-20T22:32:20.118Z,4.90
2018-12-20T22:34:54.762Z,4.90
2018-12-20T22:37:26.815Z,4.80
2018-12-20T22:39:58.656Z,4.90
2018-12-20T22:42:32.835Z,4.80
2018-12-20T22:45:07.015Z,4.60
2018-12-20T22:47:39.353Z,4.50
2018-12-20T22:50:11.424Z,4.60
2018-12-20T22:52:44.277Z,4.70
2018-12-20T22:55:18.994Z,4.80
2018-12-20T22:57:50.769Z,4.90
2018-12-20T23:00:22.924Z,5.10
2018-12-20T23:02:56.025Z,5.10
2018-12-20T23:05:27.781Z,5.10
2018-12-20T23:07:58.077Z,5.20
2018-12-20T23:10:30.754Z,5.30
2018-12-20T23:13:03.007Z,5.30
2018-12-20T23:15:35.815Z,5.30
2018-12-20T23:18:07.848Z,5.30
2018-12-20T23:20:40.044Z,5.30
2018-12-20T23:23:12.287Z,5.20
2018-12-20T23:25:43.975Z,5.20
2018-12-20T23:28:17.785Z,5.30
2018-12-20T23:30:50.152Z,5.30
2018-12-20T23:33:24.702Z,5.40
2018-12-20T23:35:55.218Z,5.40
2018-12-20T23:38:27.410Z,5.40
2018-12-20T23:40:59.403Z,5.50
2018-12-20T23:43:32.318Z,5.50
2018-12-20T23:46:07.993Z,5.60
2018-12-20T23:48:39.878Z,5.70
2018-12-20T23:51:13.899Z,5.70
2018-12-20T23:53:44.412Z,5.80
2018-12-20T23:56:16.334Z,5.80
2018-12-20T23:58:48.844Z,5.80
